AQR weather

Atoka Municipal Airport
Atoka, Oklahoma, United States

Public forecast

Using degrees Fahrenheit for public forecast. Weather courtesy of forecast.io.

Current aviation weather report (METAR) for Atoka Municipal Airport

Retrieved 2019/12/06 10:35 UTC (0 seconds ago):

KAQR 061035Z AUTO 35003KT 10SM BKN023 OVC031 10/07 A3000 RMK AO2

Closest aviation forecast (TAF) to Atoka Municipal Airport

Closest forecast is Mc Alester Regional Airport, 34.2 nm (63.3 km) NNE. Retrieved 2019/12/06 06:22 UTC (4 hours ago):

TAF KMLC 060520Z 0606/0706 11003KT P6SM VCSH BKN060 TEMPO 0606/0610 5SM -TSRA BKN025CB FM061000 35014G22KT P6SM BKN015 FM062100 36014KT P6SM SCT020 FM070200 36006KT P6SM SKC